Odin, Minnesota
Current Conditions -  °F | °C
As of 3:35 PM on Saturday 20 Dec 2014 (Local Time) from KJYG Reporting Station
Overcast Overcast  
Wind Chill: 26°   Ceiling: 1200
Heat Index: 34°   Visibility: 10mi
Dew Point: 28°   Wind: 9mph
Humidity: 81%   Direction: 150°SSE
Pressure: 30.09"   Gusts: NA
Location:  43.87°N, 94.74°W
Report Text: KJYG 202135Z AUTO 15008KT 10SM OVC012 01/M02 A3009 RMK AO2
Loading
Personal Weather Stations






























Interactive Weather Map New forecast layout! Learn more

10-Day Weather Forecast

Advertisements
Track Severe Weather on mobile